sensor_id;sensor_type;location;lat;lon;timestamp;P1;durP1;ratioP1;P2;durP2;ratioP2
27543;SDS011;17996;51.056;3.656;2023-11-21T00:00:17;25.10;;;16.25;;
27543;SDS011;17996;51.056;3.656;2023-11-21T00:02:44;24.75;;;15.25;;
27543;SDS011;17996;51.056;3.656;2023-11-21T00:05:13;35.88;;;17.67;;
27543;SDS011;17996;51.056;3.656;2023-11-21T00:07:40;35.58;;;16.95;;
27543;SDS011;17996;51.056;3.656;2023-11-21T00:10:07;29.77;;;16.58;;
27543;SDS011;17996;51.056;3.656;2023-11-21T00:12:33;29.08;;;16.52;;
27543;SDS011;17996;51.056;3.656;2023-11-21T00:15:00;31.63;;;17.92;;
27543;SDS011;17996;51.056;3.656;2023-11-21T00:17:26;30.73;;;17.73;;
27543;SDS011;17996;51.056;3.656;2023-11-21T00:19:52;27.00;;;16.52;;
27543;SDS011;17996;51.056;3.656;2023-11-21T00:22:18;27.60;;;17.20;;
27543;SDS011;17996;51.056;3.656;2023-11-21T00:24:44;33.78;;;17.40;;
27543;SDS011;17996;51.056;3.656;2023-11-21T00:27:11;34.08;;;17.00;;
27543;SDS011;17996;51.056;3.656;2023-11-21T00:29:36;30.00;;;17.20;;
27543;SDS011;17996;51.056;3.656;2023-11-21T00:32:04;24.88;;;15.68;;
27543;SDS011;17996;51.056;3.656;2023-11-21T00:34:30;25.67;;;15.38;;
27543;SDS011;17996;51.056;3.656;2023-11-21T00:36:57;26.17;;;15.35;;
27543;SDS011;17996;51.056;3.656;2023-11-21T00:39:22;28.60;;;15.27;;
27543;SDS011;17996;51.056;3.656;2023-11-21T00:41:49;21.38;;;14.95;;
27543;SDS011;17996;51.056;3.656;2023-11-21T00:44:14;27.50;;;16.08;;
27543;SDS011;17996;51.056;3.656;2023-11-21T00:46:41;29.60;;;15.80;;
27543;SDS011;17996;51.056;3.656;2023-11-21T00:49:08;30.33;;;15.95;;
27543;SDS011;17996;51.056;3.656;2023-11-21T00:51:33;22.42;;;13.65;;
27543;SDS011;17996;51.056;3.656;2023-11-21T00:53:59;28.95;;;13.73;;
27543;SDS011;17996;51.056;3.656;2023-11-21T00:56:26;22.75;;;13.75;;
27543;SDS011;17996;51.056;3.656;2023-11-21T00:58:53;28.23;;;14.32;;
27543;SDS011;17996;51.056;3.656;2023-11-21T01:01:19;29.27;;;14.90;;
27543;SDS011;17996;51.056;3.656;2023-11-21T01:03:47;25.75;;;13.65;;
27543;SDS011;17996;51.056;3.656;2023-11-21T01:06:13;21.08;;;14.15;;
27543;SDS011;17996;51.056;3.656;2023-11-21T01:08:39;26.85;;;14.60;;
27543;SDS011;17996;51.056;3.656;2023-11-21T01:11:05;24.00;;;13.57;;
27543;SDS011;17996;51.056;3.656;2023-11-21T01:13:33;28.77;;;14.60;;
27543;SDS011;17996;51.056;3.656;2023-11-21T01:16:01;24.83;;;13.23;;
27543;SDS011;17996;51.056;3.656;2023-11-21T01:18:26;20.00;;;12.95;;
27543;SDS011;17996;51.056;3.656;2023-11-21T01:20:52;22.65;;;13.63;;
27543;SDS011;17996;51.056;3.656;2023-11-21T01:23:19;23.50;;;12.38;;
27543;SDS011;17996;51.056;3.656;2023-11-21T01:25:44;22.67;;;13.65;;
27543;SDS011;17996;51.056;3.656;2023-11-21T01:28:10;32.97;;;12.95;;
27543;SDS011;17996;51.056;3.656;2023-11-21T01:30:36;22.75;;;12.77;;
27543;SDS011;17996;51.056;3.656;2023-11-21T01:33:02;27.45;;;14.02;;
27543;SDS011;17996;51.056;3.656;2023-11-21T01:35:28;34.05;;;13.35;;
27543;SDS011;17996;51.056;3.656;2023-11-21T01:37:54;26.50;;;12.93;;
27543;SDS011;17996;51.056;3.656;2023-11-21T01:40:20;21.95;;;11.32;;
27543;SDS011;17996;51.056;3.656;2023-11-21T01:42:46;22.40;;;11.45;;
27543;SDS011;17996;51.056;3.656;2023-11-21T01:45:13;26.58;;;12.50;;
27543;SDS011;17996;51.056;3.656;2023-11-21T01:47:39;29.88;;;14.02;;
27543;SDS011;17996;51.056;3.656;2023-11-21T01:50:07;25.92;;;12.43;;
27543;SDS011;17996;51.056;3.656;2023-11-21T01:52:34;22.50;;;11.73;;
27543;SDS011;17996;51.056;3.656;2023-11-21T01:55:01;22.50;;;12.00;;
27543;SDS011;17996;51.056;3.656;2023-11-21T01:57:28;24.90;;;11.93;;
27543;SDS011;17996;51.056;3.656;2023-11-21T01:59:54;24.73;;;12.45;;
27543;SDS011;17996;51.056;3.656;2023-11-21T02:02:21;24.75;;;12.65;;
27543;SDS011;17996;51.056;3.656;2023-11-21T02:04:46;27.30;;;11.80;;
27543;SDS011;17996;51.056;3.656;2023-11-21T02:07:12;24.88;;;12.38;;
27543;SDS011;17996;51.056;3.656;2023-11-21T02:09:38;30.98;;;12.38;;
27543;SDS011;17996;51.056;3.656;2023-11-21T02:12:07;28.20;;;12.65;;
27543;SDS011;17996;51.056;3.656;2023-11-21T02:14:35;38.97;;;14.13;;
27543;SDS011;17996;51.056;3.656;2023-11-21T02:17:02;32.25;;;12.70;;
27543;SDS011;17996;51.056;3.656;2023-11-21T02:19:28;26.73;;;12.70;;
27543;SDS011;17996;51.056;3.656;2023-11-21T02:21:54;26.85;;;12.57;;
27543;SDS011;17996;51.056;3.656;2023-11-21T02:24:28;33.58;;;12.65;;
27543;SDS011;17996;51.056;3.656;2023-11-21T02:26:54;30.90;;;13.70;;
27543;SDS011;17996;51.056;3.656;2023-11-21T02:29:20;29.17;;;13.18;;
27543;SDS011;17996;51.056;3.656;2023-11-21T02:31:55;29.45;;;13.75;;
27543;SDS011;17996;51.056;3.656;2023-11-21T02:34:21;34.85;;;12.48;;
27543;SDS011;17996;51.056;3.656;2023-11-21T02:36:48;29.70;;;12.93;;
27543;SDS011;17996;51.056;3.656;2023-11-21T02:39:17;24.25;;;13.02;;
27543;SDS011;17996;51.056;3.656;2023-11-21T02:41:43;42.60;;;13.07;;
27543;SDS011;17996;51.056;3.656;2023-11-21T02:44:09;42.42;;;14.70;;
27543;SDS011;17996;51.056;3.656;2023-11-21T02:46:35;38.60;;;14.23;;
27543;SDS011;17996;51.056;3.656;2023-11-21T02:49:04;34.80;;;13.57;;
27543;SDS011;17996;51.056;3.656;2023-11-21T02:51:35;20.92;;;13.32;;
27543;SDS011;17996;51.056;3.656;2023-11-21T02:54:03;26.75;;;13.52;;
27543;SDS011;17996;51.056;3.656;2023-11-21T02:56:31;29.20;;;12.82;;
27543;SDS011;17996;51.056;3.656;2023-11-21T02:58:58;26.10;;;13.60;;
27543;SDS011;17996;51.056;3.656;2023-11-21T03:01:25;31.83;;;14.82;;
27543;SDS011;17996;51.056;3.656;2023-11-21T03:03:51;31.00;;;12.95;;
27543;SDS011;17996;51.056;3.656;2023-11-21T03:06:20;30.63;;;13.32;;
27543;SDS011;17996;51.056;3.656;2023-11-21T03:08:46;18.45;;;10.05;;
27543;SDS011;17996;51.056;3.656;2023-11-21T03:11:12;32.40;;;12.77;;
27543;SDS011;17996;51.056;3.656;2023-11-21T03:13:41;32.90;;;14.23;;
27543;SDS011;17996;51.056;3.656;2023-11-21T03:16:10;25.10;;;12.68;;
27543;SDS011;17996;51.056;3.656;2023-11-21T03:18:39;25.85;;;12.45;;
27543;SDS011;17996;51.056;3.656;2023-11-21T03:21:05;25.95;;;12.95;;
27543;SDS011;17996;51.056;3.656;2023-11-21T03:23:34;33.38;;;13.93;;
27543;SDS011;17996;51.056;3.656;2023-11-21T03:26:00;20.75;;;12.18;;
27543;SDS011;17996;51.056;3.656;2023-11-21T03:28:26;25.13;;;13.10;;
27543;SDS011;17996;51.056;3.656;2023-11-21T03:30:53;25.33;;;12.77;;
27543;SDS011;17996;51.056;3.656;2023-11-21T03:33:18;24.48;;;13.60;;
27543;SDS011;17996;51.056;3.656;2023-11-21T03:35:44;38.17;;;14.25;;
27543;SDS011;17996;51.056;3.656;2023-11-21T03:38:10;25.75;;;14.50;;
27543;SDS011;17996;51.056;3.656;2023-11-21T03:40:36;38.47;;;14.75;;
27543;SDS011;17996;51.056;3.656;2023-11-21T03:43:02;27.55;;;13.43;;
27543;SDS011;17996;51.056;3.656;2023-11-21T03:45:28;29.50;;;13.15;;
27543;SDS011;17996;51.056;3.656;2023-11-21T03:47:53;30.55;;;14.40;;
27543;SDS011;17996;51.056;3.656;2023-11-21T03:50:19;31.50;;;13.82;;
27543;SDS011;17996;51.056;3.656;2023-11-21T03:52:45;34.92;;;14.68;;
27543;SDS011;17996;51.056;3.656;2023-11-21T03:55:10;29.38;;;14.40;;
27543;SDS011;17996;51.056;3.656;2023-11-21T03:57:36;31.70;;;14.50;;
27543;SDS011;17996;51.056;3.656;2023-11-21T04:00:02;35.03;;;13.50;;
27543;SDS011;17996;51.056;3.656;2023-11-21T04:02:33;23.30;;;13.30;;
27543;SDS011;17996;51.056;3.656;2023-11-21T04:04:59;26.55;;;14.13;;
27543;SDS011;17996;51.056;3.656;2023-11-21T04:07:25;27.90;;;13.23;;
27543;SDS011;17996;51.056;3.656;2023-11-21T04:09:51;28.95;;;14.10;;
27543;SDS011;17996;51.056;3.656;2023-11-21T04:12:16;32.50;;;14.23;;
27543;SDS011;17996;51.056;3.656;2023-11-21T04:14:42;27.30;;;14.38;;
27543;SDS011;17996;51.056;3.656;2023-11-21T04:17:08;28.30;;;14.50;;
27543;SDS011;17996;51.056;3.656;2023-11-21T04:19:34;33.03;;;15.73;;
27543;SDS011;17996;51.056;3.656;2023-11-21T04:22:00;29.20;;;13.40;;
27543;SDS011;17996;51.056;3.656;2023-11-21T04:24:25;27.52;;;12.68;;
27543;SDS011;17996;51.056;3.656;2023-11-21T04:26:52;24.73;;;12.77;;
27543;SDS011;17996;51.056;3.656;2023-11-21T04:29:18;24.13;;;14.02;;
27543;SDS011;17996;51.056;3.656;2023-11-21T04:31:44;24.70;;;14.35;;
27543;SDS011;17996;51.056;3.656;2023-11-21T04:34:09;26.20;;;14.20;;
27543;SDS011;17996;51.056;3.656;2023-11-21T04:36:35;26.55;;;13.30;;
27543;SDS011;17996;51.056;3.656;2023-11-21T04:39:01;31.50;;;16.20;;
27543;SDS011;17996;51.056;3.656;2023-11-21T04:41:28;29.38;;;13.88;;
27543;SDS011;17996;51.056;3.656;2023-11-21T04:43:53;31.58;;;13.68;;
27543;SDS011;17996;51.056;3.656;2023-11-21T04:46:19;46.92;;;16.83;;
27543;SDS011;17996;51.056;3.656;2023-11-21T04:48:45;25.42;;;13.52;;
27543;SDS011;17996;51.056;3.656;2023-11-21T04:51:10;26.55;;;14.95;;
27543;SDS011;17996;51.056;3.656;2023-11-21T04:53:37;24.50;;;14.05;;
27543;SDS011;17996;51.056;3.656;2023-11-21T04:56:04;22.77;;;13.30;;
27543;SDS011;17996;51.056;3.656;2023-11-21T04:58:30;27.73;;;13.93;;
27543;SDS011;17996;51.056;3.656;2023-11-21T05:00:57;29.27;;;13.75;;
27543;SDS011;17996;51.056;3.656;2023-11-21T05:03:22;29.77;;;14.00;;
27543;SDS011;17996;51.056;3.656;2023-11-21T05:05:48;33.25;;;14.48;;
27543;SDS011;17996;51.056;3.656;2023-11-21T05:08:14;27.13;;;13.52;;
27543;SDS011;17996;51.056;3.656;2023-11-21T05:10:41;25.45;;;12.93;;
27543;SDS011;17996;51.056;3.656;2023-11-21T05:13:06;33.03;;;15.27;;
27543;SDS011;17996;51.056;3.656;2023-11-21T05:15:35;37.50;;;15.82;;
27543;SDS011;17996;51.056;3.656;2023-11-21T05:18:01;36.47;;;16.48;;
27543;SDS011;17996;51.056;3.656;2023-11-21T05:20:27;35.90;;;15.52;;
27543;SDS011;17996;51.056;3.656;2023-11-21T05:22:53;36.08;;;15.65;;
27543;SDS011;17996;51.056;3.656;2023-11-21T05:25:19;31.80;;;16.30;;
27543;SDS011;17996;51.056;3.656;2023-11-21T05:27:48;35.92;;;15.75;;
27543;SDS011;17996;51.056;3.656;2023-11-21T05:30:13;37.92;;;17.08;;
27543;SDS011;17996;51.056;3.656;2023-11-21T05:32:40;34.03;;;17.15;;
27543;SDS011;17996;51.056;3.656;2023-11-21T05:35:09;47.63;;;18.63;;
27543;SDS011;17996;51.056;3.656;2023-11-21T05:37:40;40.10;;;17.90;;
27543;SDS011;17996;51.056;3.656;2023-11-21T05:40:07;42.45;;;16.80;;
27543;SDS011;17996;51.056;3.656;2023-11-21T05:42:34;37.80;;;18.48;;
27543;SDS011;17996;51.056;3.656;2023-11-21T05:45:00;36.92;;;17.65;;
27543;SDS011;17996;51.056;3.656;2023-11-21T05:47:39;48.03;;;17.70;;
27543;SDS011;17996;51.056;3.656;2023-11-21T05:50:06;52.67;;;18.33;;
27543;SDS011;17996;51.056;3.656;2023-11-21T05:52:43;35.72;;;17.30;;
27543;SDS011;17996;51.056;3.656;2023-11-21T05:55:10;45.25;;;19.50;;
27543;SDS011;17996;51.056;3.656;2023-11-21T05:57:39;42.17;;;19.00;;
27543;SDS011;17996;51.056;3.656;2023-11-21T06:00:06;39.53;;;18.88;;
27543;SDS011;17996;51.056;3.656;2023-11-21T06:02:40;39.42;;;16.52;;
27543;SDS011;17996;51.056;3.656;2023-11-21T06:05:07;40.45;;;17.13;;
27543;SDS011;17996;51.056;3.656;2023-11-21T06:07:33;46.17;;;19.67;;
27543;SDS011;17996;51.056;3.656;2023-11-21T06:10:00;45.60;;;18.58;;
27543;SDS011;17996;51.056;3.656;2023-11-21T06:12:28;39.45;;;18.40;;
27543;SDS011;17996;51.056;3.656;2023-11-21T06:14:53;42.58;;;18.23;;
27543;SDS011;17996;51.056;3.656;2023-11-21T06:17:20;41.33;;;19.27;;
27543;SDS011;17996;51.056;3.656;2023-11-21T06:19:46;47.13;;;18.80;;
27543;SDS011;17996;51.056;3.656;2023-11-21T06:22:12;42.15;;;17.98;;
27543;SDS011;17996;51.056;3.656;2023-11-21T06:24:38;57.85;;;20.73;;
27543;SDS011;17996;51.056;3.656;2023-11-21T06:27:06;45.70;;;19.48;;
27543;SDS011;17996;51.056;3.656;2023-11-21T06:29:31;54.60;;;20.27;;
27543;SDS011;17996;51.056;3.656;2023-11-21T06:31:57;46.85;;;19.77;;
27543;SDS011;17996;51.056;3.656;2023-11-21T06:34:23;46.00;;;20.77;;
27543;SDS011;17996;51.056;3.656;2023-11-21T06:36:49;47.17;;;19.40;;
27543;SDS011;17996;51.056;3.656;2023-11-21T06:39:15;55.53;;;21.52;;
27543;SDS011;17996;51.056;3.656;2023-11-21T06:41:42;60.97;;;21.33;;
27543;SDS011;17996;51.056;3.656;2023-11-21T06:44:09;59.63;;;22.83;;
27543;SDS011;17996;51.056;3.656;2023-11-21T06:46:34;55.58;;;23.42;;
27543;SDS011;17996;51.056;3.656;2023-11-21T06:49:00;57.22;;;22.98;;
27543;SDS011;17996;51.056;3.656;2023-11-21T06:51:26;50.92;;;20.80;;
27543;SDS011;17996;51.056;3.656;2023-11-21T06:53:51;58.65;;;21.58;;
27543;SDS011;17996;51.056;3.656;2023-11-21T06:56:17;52.35;;;22.50;;
27543;SDS011;17996;51.056;3.656;2023-11-21T06:58:44;61.13;;;23.55;;
27543;SDS011;17996;51.056;3.656;2023-11-21T07:01:11;66.95;;;22.83;;
27543;SDS011;17996;51.056;3.656;2023-11-21T07:03:38;51.80;;;20.88;;
27543;SDS011;17996;51.056;3.656;2023-11-21T07:06:04;60.08;;;21.40;;
27543;SDS011;17996;51.056;3.656;2023-11-21T07:08:30;53.03;;;21.58;;
27543;SDS011;17996;51.056;3.656;2023-11-21T07:10:56;60.97;;;21.38;;
27543;SDS011;17996;51.056;3.656;2023-11-21T07:13:22;45.65;;;20.88;;
27543;SDS011;17996;51.056;3.656;2023-11-21T07:15:48;74.30;;;20.77;;
27543;SDS011;17996;51.056;3.656;2023-11-21T07:18:14;51.35;;;19.13;;
27543;SDS011;17996;51.056;3.656;2023-11-21T07:20:40;46.03;;;19.48;;
27543;SDS011;17996;51.056;3.656;2023-11-21T07:23:06;63.30;;;20.63;;
27543;SDS011;17996;51.056;3.656;2023-11-21T07:25:32;37.20;;;16.92;;
27543;SDS011;17996;51.056;3.656;2023-11-21T07:27:58;33.72;;;16.15;;
27543;SDS011;17996;51.056;3.656;2023-11-21T07:30:25;36.10;;;16.00;;
27543;SDS011;17996;51.056;3.656;2023-11-21T07:32:52;32.38;;;16.63;;
27543;SDS011;17996;51.056;3.656;2023-11-21T07:35:17;33.55;;;15.55;;
27543;SDS011;17996;51.056;3.656;2023-11-21T07:37:43;32.58;;;15.80;;
27543;SDS011;17996;51.056;3.656;2023-11-21T07:40:09;34.10;;;16.00;;
27543;SDS011;17996;51.056;3.656;2023-11-21T07:42:37;32.83;;;16.52;;
27543;SDS011;17996;51.056;3.656;2023-11-21T07:45:03;31.23;;;14.93;;
27543;SDS011;17996;51.056;3.656;2023-11-21T07:47:30;27.15;;;14.25;;
27543;SDS011;17996;51.056;3.656;2023-11-21T07:49:59;33.55;;;15.18;;
27543;SDS011;17996;51.056;3.656;2023-11-21T07:52:28;30.48;;;14.35;;
27543;SDS011;17996;51.056;3.656;2023-11-21T07:54:53;38.00;;;15.80;;
27543;SDS011;17996;51.056;3.656;2023-11-21T07:57:19;29.38;;;14.75;;
27543;SDS011;17996;51.056;3.656;2023-11-21T07:59:45;27.23;;;14.25;;
27543;SDS011;17996;51.056;3.656;2023-11-21T08:02:10;28.15;;;12.57;;
27543;SDS011;17996;51.056;3.656;2023-11-21T08:04:37;26.67;;;13.40;;
27543;SDS011;17996;51.056;3.656;2023-11-21T08:07:02;27.35;;;13.32;;
27543;SDS011;17996;51.056;3.656;2023-11-21T08:09:29;29.40;;;14.25;;
27543;SDS011;17996;51.056;3.656;2023-11-21T08:11:55;24.70;;;13.43;;
27543;SDS011;17996;51.056;3.656;2023-11-21T08:14:21;20.80;;;12.02;;
27543;SDS011;17996;51.056;3.656;2023-11-21T08:16:47;28.70;;;13.27;;
27543;SDS011;17996;51.056;3.656;2023-11-21T08:19:13;24.23;;;13.80;;
27543;SDS011;17996;51.056;3.656;2023-11-21T08:21:38;26.38;;;13.52;;
27543;SDS011;17996;51.056;3.656;2023-11-21T08:24:08;30.65;;;14.90;;
27543;SDS011;17996;51.056;3.656;2023-11-21T08:26:36;26.88;;;14.13;;
27543;SDS011;17996;51.056;3.656;2023-11-21T08:29:02;29.65;;;14.48;;
27543;SDS011;17996;51.056;3.656;2023-11-21T08:31:28;26.40;;;13.48;;
27543;SDS011;17996;51.056;3.656;2023-11-21T08:33:54;26.42;;;14.10;;
27543;SDS011;17996;51.056;3.656;2023-11-21T08:36:21;28.83;;;15.05;;
27543;SDS011;17996;51.056;3.656;2023-11-21T08:38:49;31.17;;;15.18;;
27543;SDS011;17996;51.056;3.656;2023-11-21T08:41:17;25.75;;;12.65;;
27543;SDS011;17996;51.056;3.656;2023-11-21T08:43:47;30.02;;;14.32;;
27543;SDS011;17996;51.056;3.656;2023-11-21T08:46:15;26.58;;;13.40;;
27543;SDS011;17996;51.056;3.656;2023-11-21T08:48:43;28.00;;;13.13;;
27543;SDS011;17996;51.056;3.656;2023-11-21T08:51:10;23.27;;;11.13;;
27543;SDS011;17996;51.056;3.656;2023-11-21T08:53:36;23.83;;;11.27;;
27543;SDS011;17996;51.056;3.656;2023-11-21T08:56:03;22.35;;;11.52;;
27543;SDS011;17996;51.056;3.656;2023-11-21T08:58:30;22.30;;;11.40;;
27543;SDS011;17996;51.056;3.656;2023-11-21T09:00:57;25.08;;;10.57;;
27543;SDS011;17996;51.056;3.656;2023-11-21T09:03:23;21.92;;;10.07;;
27543;SDS011;17996;51.056;3.656;2023-11-21T09:05:50;21.50;;;9.93;;
27543;SDS011;17996;51.056;3.656;2023-11-21T09:08:16;21.10;;;9.73;;
27543;SDS011;17996;51.056;3.656;2023-11-21T09:10:42;14.23;;;7.65;;
27543;SDS011;17996;51.056;3.656;2023-11-21T09:13:10;19.92;;;8.63;;
27543;SDS011;17996;51.056;3.656;2023-11-21T09:15:36;13.60;;;8.10;;
27543;SDS011;17996;51.056;3.656;2023-11-21T09:18:02;19.17;;;8.68;;
27543;SDS011;17996;51.056;3.656;2023-11-21T09:20:27;16.45;;;8.55;;
27543;SDS011;17996;51.056;3.656;2023-11-21T09:22:53;13.32;;;6.95;;
27543;SDS011;17996;51.056;3.656;2023-11-21T09:25:20;16.42;;;7.82;;
27543;SDS011;17996;51.056;3.656;2023-11-21T09:27:46;12.23;;;6.72;;
27543;SDS011;17996;51.056;3.656;2023-11-21T09:30:12;12.85;;;5.93;;
27543;SDS011;17996;51.056;3.656;2023-11-21T09:32:39;13.55;;;7.03;;
27543;SDS011;17996;51.056;3.656;2023-11-21T09:35:05;14.77;;;5.72;;
27543;SDS011;17996;51.056;3.656;2023-11-21T09:37:33;20.63;;;5.90;;
27543;SDS011;17996;51.056;3.656;2023-11-21T09:40:01;12.32;;;5.75;;
27543;SDS011;17996;51.056;3.656;2023-11-21T09:42:38;18.20;;;6.13;;
27543;SDS011;17996;51.056;3.656;2023-11-21T09:45:17;12.50;;;4.85;;
27543;SDS011;17996;51.056;3.656;2023-11-21T09:47:49;10.02;;;4.70;;
27543;SDS011;17996;51.056;3.656;2023-11-21T09:50:17;12.35;;;5.70;;
27543;SDS011;17996;51.056;3.656;2023-11-21T09:55:13;10.40;;;4.32;;
27543;SDS011;17996;51.056;3.656;2023-11-21T09:57:41;13.02;;;4.93;;
27543;SDS011;17996;51.056;3.656;2023-11-21T10:00:07;10.15;;;4.90;;
27543;SDS011;17996;51.056;3.656;2023-11-21T10:02:36;11.15;;;4.60;;
27543;SDS011;17996;51.056;3.656;2023-11-21T10:05:05;9.65;;;5.18;;
27543;SDS011;17996;51.056;3.656;2023-11-21T10:07:32;10.15;;;4.28;;
27543;SDS011;17996;51.056;3.656;2023-11-21T10:10:00;15.27;;;4.65;;
27543;SDS011;17996;51.056;3.656;2023-11-21T10:12:27;12.77;;;4.03;;
27543;SDS011;17996;51.056;3.656;2023-11-21T10:14:54;19.35;;;4.60;;
27543;SDS011;17996;51.056;3.656;2023-11-21T10:17:23;11.05;;;4.68;;
27543;SDS011;17996;51.056;3.656;2023-11-21T10:19:54;9.40;;;3.85;;
27543;SDS011;17996;51.056;3.656;2023-11-21T10:22:21;17.67;;;4.18;;
27543;SDS011;17996;51.056;3.656;2023-11-21T10:24:47;11.15;;;4.50;;
27543;SDS011;17996;51.056;3.656;2023-11-21T10:27:13;11.05;;;4.47;;
27543;SDS011;17996;51.056;3.656;2023-11-21T10:29:39;16.65;;;5.07;;
27543;SDS011;17996;51.056;3.656;2023-11-21T10:32:05;12.48;;;4.72;;
27543;SDS011;17996;51.056;3.656;2023-11-21T10:34:31;12.98;;;4.68;;
27543;SDS011;17996;51.056;3.656;2023-11-21T10:36:57;19.63;;;5.75;;
27543;SDS011;17996;51.056;3.656;2023-11-21T10:39:23;12.98;;;5.85;;
27543;SDS011;17996;51.056;3.656;2023-11-21T10:41:53;13.05;;;4.82;;
27543;SDS011;17996;51.056;3.656;2023-11-21T10:44:20;17.92;;;6.85;;
27543;SDS011;17996;51.056;3.656;2023-11-21T10:46:46;19.95;;;6.10;;
27543;SDS011;17996;51.056;3.656;2023-11-21T10:49:19;8.52;;;5.93;;
27543;SDS011;17996;51.056;3.656;2023-11-21T10:51:45;12.13;;;4.88;;
27543;SDS011;17996;51.056;3.656;2023-11-21T10:54:16;10.52;;;4.20;;
27543;SDS011;17996;51.056;3.656;2023-11-21T10:56:46;8.52;;;3.88;;
27543;SDS011;17996;51.056;3.656;2023-11-21T10:59:16;7.10;;;3.40;;
27543;SDS011;17996;51.056;3.656;2023-11-21T11:01:42;16.98;;;3.80;;
27543;SDS011;17996;51.056;3.656;2023-11-21T11:04:11;10.53;;;4.03;;
27543;SDS011;17996;51.056;3.656;2023-11-21T11:06:44;13.88;;;3.33;;
27543;SDS011;17996;51.056;3.656;2023-11-21T11:09:15;9.20;;;3.75;;
27543;SDS011;17996;51.056;3.656;2023-11-21T11:11:41;9.15;;;3.10;;
27543;SDS011;17996;51.056;3.656;2023-11-21T11:14:12;14.00;;;2.80;;
27543;SDS011;17996;51.056;3.656;2023-11-21T11:16:39;21.85;;;3.83;;
27543;SDS011;17996;51.056;3.656;2023-11-21T11:19:09;9.02;;;3.47;;
27543;SDS011;17996;51.056;3.656;2023-11-21T11:22:24;18.13;;;4.00;;
27543;SDS011;17996;51.056;3.656;2023-11-21T11:25:03;14.88;;;3.13;;
27543;SDS011;17996;51.056;3.656;2023-11-21T11:36:10;18.33;;;3.22;;
27543;SDS011;17996;51.056;3.656;2023-11-21T11:38:38;18.98;;;3.58;;
27543;SDS011;17996;51.056;3.656;2023-11-21T11:41:10;15.95;;;3.15;;
27543;SDS011;17996;51.056;3.656;2023-11-21T11:43:35;13.55;;;3.15;;
27543;SDS011;17996;51.056;3.656;2023-11-21T11:46:10;10.65;;;3.30;;
27543;SDS011;17996;51.056;3.656;2023-11-21T11:48:40;15.60;;;4.22;;
27543;SDS011;17996;51.056;3.656;2023-11-21T11:51:15;7.35;;;2.20;;
27543;SDS011;17996;51.056;3.656;2023-11-21T11:53:46;10.13;;;2.65;;
27543;SDS011;17996;51.056;3.656;2023-11-21T11:56:23;14.07;;;3.53;;
27543;SDS011;17996;51.056;3.656;2023-11-21T11:59:00;9.15;;;2.20;;
27543;SDS011;17996;51.056;3.656;2023-11-21T12:01:29;12.07;;;2.95;;
27543;SDS011;17996;51.056;3.656;2023-11-21T12:06:51;7.38;;;2.30;;
27543;SDS011;17996;51.056;3.656;2023-11-21T12:09:19;7.15;;;2.40;;
27543;SDS011;17996;51.056;3.656;2023-11-21T12:11:46;9.43;;;2.70;;
27543;SDS011;17996;51.056;3.656;2023-11-21T12:14:14;10.38;;;2.13;;
27543;SDS011;17996;51.056;3.656;2023-11-21T12:16:40;7.22;;;2.13;;
27543;SDS011;17996;51.056;3.656;2023-11-21T12:19:08;8.43;;;2.60;;
27543;SDS011;17996;51.056;3.656;2023-11-21T12:21:35;11.73;;;2.58;;
27543;SDS011;17996;51.056;3.656;2023-11-21T12:24:02;9.25;;;2.75;;
27543;SDS011;17996;51.056;3.656;2023-11-21T12:26:28;7.20;;;2.78;;
27543;SDS011;17996;51.056;3.656;2023-11-21T12:28:54;12.43;;;2.80;;
27543;SDS011;17996;51.056;3.656;2023-11-21T12:31:21;8.48;;;2.33;;
27543;SDS011;17996;51.056;3.656;2023-11-21T12:33:47;14.32;;;3.13;;
27543;SDS011;17996;51.056;3.656;2023-11-21T12:36:13;14.90;;;3.03;;
27543;SDS011;17996;51.056;3.656;2023-11-21T12:38:39;8.35;;;2.67;;
27543;SDS011;17996;51.056;3.656;2023-11-21T12:41:05;20.20;;;2.92;;
27543;SDS011;17996;51.056;3.656;2023-11-21T12:43:31;9.35;;;2.55;;
27543;SDS011;17996;51.056;3.656;2023-11-21T12:46:07;5.63;;;2.33;;
27543;SDS011;17996;51.056;3.656;2023-11-21T12:48:38;9.77;;;2.80;;
27543;SDS011;17996;51.056;3.656;2023-11-21T12:51:05;8.73;;;3.00;;
27543;SDS011;17996;51.056;3.656;2023-11-21T12:53:32;9.43;;;2.70;;
27543;SDS011;17996;51.056;3.656;2023-11-21T12:56:06;8.68;;;2.33;;
27543;SDS011;17996;51.056;3.656;2023-11-21T12:58:38;5.00;;;2.00;;
27543;SDS011;17996;51.056;3.656;2023-11-21T13:01:08;20.02;;;3.63;;
27543;SDS011;17996;51.056;3.656;2023-11-21T13:03:37;6.05;;;2.42;;
27543;SDS011;17996;51.056;3.656;2023-11-21T13:06:04;8.65;;;2.38;;
27543;SDS011;17996;51.056;3.656;2023-11-21T13:08:30;5.78;;;1.95;;
27543;SDS011;17996;51.056;3.656;2023-11-21T13:10:58;9.05;;;2.67;;
27543;SDS011;17996;51.056;3.656;2023-11-21T13:13:25;4.90;;;2.35;;
27543;SDS011;17996;51.056;3.656;2023-11-21T13:15:57;7.80;;;2.92;;
27543;SDS011;17996;51.056;3.656;2023-11-21T13:18:29;5.75;;;2.63;;
27543;SDS011;17996;51.056;3.656;2023-11-21T13:20:59;11.57;;;2.88;;
27543;SDS011;17996;51.056;3.656;2023-11-21T13:23:34;12.23;;;3.00;;
27543;SDS011;17996;51.056;3.656;2023-11-21T13:26:02;6.28;;;2.40;;
27543;SDS011;17996;51.056;3.656;2023-11-21T13:28:31;8.23;;;3.38;;
27543;SDS011;17996;51.056;3.656;2023-11-21T13:31:02;9.68;;;3.40;;
27543;SDS011;17996;51.056;3.656;2023-11-21T13:33:36;7.60;;;2.80;;
27543;SDS011;17996;51.056;3.656;2023-11-21T13:36:06;6.13;;;2.30;;
27543;SDS011;17996;51.056;3.656;2023-11-21T13:38:35;7.35;;;2.67;;
27543;SDS011;17996;51.056;3.656;2023-11-21T13:41:02;6.90;;;2.55;;
27543;SDS011;17996;51.056;3.656;2023-11-21T13:43:32;6.07;;;2.35;;
27543;SDS011;17996;51.056;3.656;2023-11-21T13:45:58;3.75;;;2.00;;
27543;SDS011;17996;51.056;3.656;2023-11-21T13:48:33;8.05;;;2.50;;
27543;SDS011;17996;51.056;3.656;2023-11-21T13:51:07;4.68;;;2.28;;
27543;SDS011;17996;51.056;3.656;2023-11-21T13:53:41;7.43;;;2.05;;
27543;SDS011;17996;51.056;3.656;2023-11-21T13:56:07;6.43;;;2.78;;
27543;SDS011;17996;51.056;3.656;2023-11-21T13:58:33;3.35;;;2.53;;
27543;SDS011;17996;51.056;3.656;2023-11-21T14:01:20;4.80;;;2.20;;
27543;SDS011;17996;51.056;3.656;2023-11-21T14:03:57;5.15;;;2.10;;
27543;SDS011;17996;51.056;3.656;2023-11-21T14:06:33;3.80;;;2.42;;
27543;SDS011;17996;51.056;3.656;2023-11-21T14:09:05;4.55;;;2.30;;
27543;SDS011;17996;51.056;3.656;2023-11-21T14:11:32;4.25;;;2.35;;
27543;SDS011;17996;51.056;3.656;2023-11-21T14:14:03;6.55;;;2.30;;
27543;SDS011;17996;51.056;3.656;2023-11-21T14:16:30;3.35;;;2.47;;
27543;SDS011;17996;51.056;3.656;2023-11-21T14:18:56;2.88;;;2.38;;
27543;SDS011;17996;51.056;3.656;2023-11-21T14:21:29;4.65;;;2.80;;
27543;SDS011;17996;51.056;3.656;2023-11-21T14:23:54;7.68;;;2.30;;
27543;SDS011;17996;51.056;3.656;2023-11-21T14:26:20;4.13;;;2.60;;
27543;SDS011;17996;51.056;3.656;2023-11-21T14:28:46;5.40;;;3.30;;
27543;SDS011;17996;51.056;3.656;2023-11-21T14:31:14;4.28;;;2.95;;
27543;SDS011;17996;51.056;3.656;2023-11-21T14:33:42;7.35;;;3.35;;
27543;SDS011;17996;51.056;3.656;2023-11-21T14:36:11;5.57;;;3.28;;
27543;SDS011;17996;51.056;3.656;2023-11-21T14:38:38;5.88;;;3.10;;
27543;SDS011;17996;51.056;3.656;2023-11-21T14:41:04;7.47;;;3.38;;
27543;SDS011;17996;51.056;3.656;2023-11-21T14:43:34;5.47;;;3.65;;